Latest Weather Observations for Redland (Alexandra Hills)

IDQ60801

Issued at 11:02 pm EST Monday 23 October 2017 (issued every 30 minutes, with the page automatically refreshed every 10 minutes)

About weather observations | Map of weather stations | Latest weather observations for QLD | Other Formats
Station Details ID: 140007 Name: REDLAND (ALEXANDRA HILLS) Lat: -27.54 Lon: 153.24 Height: 50.53 m
Data from the previous 72 hours. | See also: Recent months at Redland (Alexandra Hills)
Date/Time
EST
Temp
°C
App
Temp
°C
Dew
Point
°C
Rel
Hum
%
Delta-T
°C
Wind Press
QNH
hPa
Press
MSL
hPa
Rain since
9am
mm
Dir  Spd
km/h
Gust
km/h
Spd
kts
Gust
kts
23/11:00pm 15.8 15.8 13.5 86 1.3 SW 6 7 3 4 - - 1.8
23/10:30pm 16.7 16.6 13.8 83 1.6 SE 7 15 4 8 - - 1.8
23/10:00pm 16.3 16.2 13.4 83 1.6 SSE 6 9 3 5 - - 1.8
23/09:30pm 15.6 15.2 13.1 85 1.4 SSE 7 9 4 5 - - 1.8
23/09:00pm 15.2 15.0 12.9 86 1.3 S 6 7 3 4 - - 1.8
23/08:30pm 16.4 16.6 12.9 80 1.9 S 4 6 2 3 - - 1.8
23/08:00pm 16.5 16.7 13.2 81 1.8 SE 4 6 2 3 - - 1.8
23/07:30pm 17.3 17.2 13.4 78 2.2 S 6 9 3 5 - - 1.8
23/07:00pm 17.8 17.0 13.9 78 2.2 S 11 15 6 8 - - 1.8
23/06:30pm 18.2 18.2 14.1 77 2.4 SSE 7 11 4 6 - - 1.8
23/06:00pm 19.2 20.3 14.5 74 2.7 ENE 2 6 1 3 - - 1.8
23/05:30pm 19.6 19.4 14.6 73 2.9 ESE 9 19 5 10 - - 1.8
23/05:00pm 19.9 19.9 14.3 70 3.3 ESE 7 15 4 8 - - 1.8
23/04:30pm 20.3 20.8 14.9 71 3.2 E 6 7 3 4 - - 1.8
23/04:00pm 20.6 21.2 14.3 67 3.7 E 4 7 2 4 - - 1.8
23/03:30pm 21.0 21.5 13.9 64 4.1 ENE 4 6 2 3 - - 1.8
23/03:00pm 20.8 20.8 13.7 64 4.1 ESE 6 9 3 5 - - 1.8
23/02:30pm 20.8 21.1 14.5 67 3.7 ESE 6 13 3 7 - - 1.8
23/02:00pm 21.1 21.2 14.5 66 3.9 ESE 7 13 4 7 - - 1.8
23/01:30pm 22.0 22.6 15.4 66 3.9 ESE 6 11 3 6 - - 1.8
23/01:00pm 20.6 21.0 15.4 72 3.1 SE 7 15 4 8 - - 1.8
23/12:30pm 20.0 20.0 14.1 69 3.4 SSE 7 15 4 8 - - 1.8
23/12:00pm 20.1 19.9 14.7 71 3.2 SE 9 15 5 8 - - 1.8
23/11:30am 18.2 19.4 16.0 87 1.3 WSW 4 6 2 3 - - 1.8
23/11:00am 16.1 16.4 14.5 90 0.9 SSW 6 9 3 5 - - 1.8
23/10:30am 15.7 13.6 13.7 88 1.1 SW 17 28 9 15 - - 1.6
23/10:00am 18.6 19.8 16.8 89 1.1 SW 6 9 3 5 - - 1.6
23/09:30am 19.4 20.5 15.7 79 2.2 WSW 4 7 2 4 - - 0.4
23/09:00am 22.2 23.1 16.5 70 3.5 E 7 19 4 10 - - 0.2
23/08:30am 20.1 20.4 15.1 73 2.9 SSW 7 11 4 6 - - 0.2
23/08:00am 19.3 20.2 15.2 77 2.4 SSW 4 6 2 3 - - 0.2
23/07:30am 17.2 17.4 14.8 86 1.4 SW 7 15 4 8 - - 0.0
23/07:00am 16.1 16.4 15.0 93 0.6 WSW 7 11 4 6 - - 0.0
23/06:30am 15.8 15.8 14.3 91 0.9 W 7 9 4 5 - - 0.0
23/06:00am 15.3 14.9 14.0 92 0.7 WSW 9 17 5 9 - - 0.0
23/05:30am 15.7 15.6 13.9 89 1.0 NE 7 11 4 6 - - 0.0
23/05:00am 15.5 14.5 13.5 88 1.1 WSW 11 17 6 9 - - 0.0
23/04:30am 15.2 15.2 13.7 91 0.8 SW 6 6 3 3 - - 0.0
23/04:00am 15.4 16.1 13.4 88 1.1 SW 2 6 1 3 - - 0.0
23/03:30am 15.8 15.6 13.6 87 1.2 SSW 7 9 4 5 - - 0.0
23/03:00am 15.5 15.4 13.2 86 1.3 SSW 6 6 3 3 - - 0.0
23/02:30am 15.1 15.0 13.3 89 1.0 SSW 6 6 3 3 - - 0.0
23/02:00am 15.9 16.1 13.2 84 1.5 SSW 4 4 2 2 - - 0.0
23/01:30am 16.1 16.4 13.4 84 1.5 SSW 4 6 2 3 - - 0.0
23/01:00am 15.9 15.7 13.0 83 1.6 S 6 7 3 4 - - 0.0
23/12:30am 16.4 16.3 13.3 82 1.7 S 6 9 3 5 - - 0.0
23/12:00am 16.8 16.8 13.5 81 1.9 S 6 9 3 5 - - 0.0
 
Date/Time
EST
Temp
°C
App
Temp
°C
Dew
Point
°C
Rel
Hum
%
Delta-T
°C
Wind Press
QNH
hPa
Press
MSL
hPa
Rain since
9am
mm
Dir  Spd
km/h
Gust
km/h
Spd
kts
Gust
kts
22/11:30pm 16.8 16.8 13.7 82 1.8 S 6 9 3 5 - - 0.0
22/11:00pm 16.1 16.1 13.6 85 1.4 SSW 6 9 3 5 - - 0.0
22/10:30pm 15.8 15.6 13.5 86 1.3 SSW 7 9 4 5 - - 0.0
22/10:00pm 16.0 16.4 13.7 86 1.3 S 4 6 2 3 - - 0.0
22/09:30pm 16.0 16.1 13.8 87 1.2 SSW 6 7 3 4 - - 0.0
22/09:00pm 15.9 16.7 13.7 87 1.2 ESE 2 4 1 2 - - 0.0
22/08:30pm 17.0 18.2 13.7 81 1.9 CALM 0 0 0 0 - - 0.0
22/08:00pm 18.2 19.6 14.3 78 2.2 CALM 0 0 0 0 - - 0.0
22/07:30pm 18.4 18.8 13.7 74 2.7 ESE 4 7 2 4 - - 0.0
22/07:00pm 18.9 18.7 13.5 71 3.1 SE 7 13 4 7 - - 0.0
22/06:30pm 19.1 18.8 13.3 69 3.3 SE 7 15 4 8 - - 0.0
22/06:00pm 19.8 18.7 13.0 65 3.9 ESE 11 19 6 10 - - 0.0
22/05:30pm 20.4 19.2 12.9 62 4.3 SE 11 20 6 11 - - 0.0
22/05:00pm 20.9 18.9 12.8 60 4.6 ESE 15 24 8 13 - - 0.0
22/04:30pm 21.5 20.0 13.2 59 4.8 ESE 13 22 7 12 - - 0.0
22/04:00pm 21.7 20.4 13.6 60 4.7 E 13 20 7 11 - - 0.0
22/03:30pm 21.9 20.4 13.0 57 5.1 E 13 26 7 14 - - 0.0
22/03:00pm 22.5 21.4 13.0 55 5.5 E 11 20 6 11 - - 0.0
22/02:30pm 22.1 22.0 14.0 60 4.7 E 7 13 4 7 - - 0.0
22/02:00pm 22.5 22.0 13.8 58 5.1 E 9 19 5 10 - - 0.0
22/01:30pm 22.1 21.0 13.2 57 5.1 E 11 19 6 10 - - 0.0
22/01:00pm 23.1 22.6 13.8 55 5.4 E 9 17 5 9 - - 0.0
22/12:30pm 22.4 21.7 13.2 56 5.3 E 9 13 5 7 - - 0.0
22/12:00pm 23.6 23.3 13.2 52 6.0 E 7 15 4 8 - - 0.0
22/11:30am 22.9 22.9 12.5 52 5.9 S 4 7 2 4 - - 0.0
22/11:00am 22.1 22.0 12.1 53 5.6 SSW 4 9 2 5 - - 0.0
22/10:30am 21.8 21.3 12.6 56 5.2 SSE 7 13 4 7 - - 0.0
22/10:00am 21.4 20.9 12.5 57 5.0 WSW 7 17 4 9 - - 0.0
22/09:30am 20.6 19.2 12.3 59 4.7 SSW 11 19 6 10 - - 0.0
22/09:00am 20.0 19.2 13.0 64 4.0 SSW 9 20 5 11 - - 7.6
22/08:30am 18.8 17.2 12.8 68 3.4 SSW 13 20 7 11 - - 7.6
22/08:00am 17.9 16.7 12.8 72 2.9 SW 11 20 6 11 - - 7.6
22/07:30am 16.8 15.4 12.3 75 2.5 SW 11 19 6 10 - - 7.6
22/07:00am 15.9 14.6 12.6 81 1.8 SSW 11 19 6 10 - - 7.6
22/06:30am 14.6 13.5 11.9 84 1.5 SW 9 17 5 9 - - 7.6
22/06:00am 13.2 12.4 11.8 91 0.7 SW 7 9 4 5 - - 7.6
22/05:30am 12.5 11.2 11.1 91 0.7 SW 9 13 5 7 - - 7.6
22/05:00am 12.4 10.7 11.1 92 0.7 SW 11 15 6 8 - - 7.6
22/04:30am 12.6 10.9 11.3 92 0.7 SW 11 17 6 9 - - 7.6
22/04:00am 12.6 11.4 11.7 94 0.5 SW 9 15 5 8 - - 7.6
22/03:30am 12.6 11.8 11.8 95 0.4 SW 7 11 4 6 - - 7.6
22/03:00am 12.6 11.8 11.7 94 0.5 SW 7 13 4 7 - - 7.6
22/02:30am 12.8 11.7 12.0 95 0.4 WSW 9 15 5 8 - - 7.6
22/02:00am 12.9 11.8 12.1 95 0.4 WSW 9 13 5 7 - - 7.6
22/01:30am 12.9 11.5 12.1 95 0.4 WSW 11 17 6 9 - - 7.6
22/01:00am 12.8 12.1 12.0 95 0.4 WSW 7 11 4 6 - - 7.4
22/12:30am 12.9 12.3 12.3 96 0.3 SW 7 11 4 6 - - 7.4
22/12:00am 13.1 12.7 12.3 95 0.4 WSW 6 7 3 4 - - 7.4
 
Date/Time
EST
Temp
°C
App
Temp
°C
Dew
Point
°C
Rel
Hum
%
Delta-T
°C
Wind Press
QNH
hPa
Press
MSL
hPa
Rain since
9am
mm
Dir  Spd
km/h
Gust
km/h
Spd
kts
Gust
kts
21/11:30pm 13.4 13.1 12.6 95 0.4 SW 6 7 3 4 - - 7.4
21/11:00pm 13.7 13.5 12.9 95 0.4 WSW 6 7 3 4 - - 7.4
21/10:30pm 14.0 13.6 13.1 94 0.5 SW 7 9 4 5 - - 7.4
21/10:00pm 14.3 14.0 13.3 94 0.6 SW 7 11 4 6 - - 7.4
21/09:30pm 14.5 13.9 13.5 94 0.6 SW 9 15 5 8 - - 7.4
21/09:00pm 14.7 14.6 13.9 95 0.4 SW 7 13 4 7 - - 7.4
21/08:30pm 14.9 14.6 14.3 96 0.3 SW 9 15 5 8 - - 7.4
21/08:00pm 15.3 15.5 14.7 96 0.3 WSW 7 11 4 6 - - 7.4
21/07:30pm 15.4 15.6 14.8 96 0.3 WSW 7 11 4 6 - - 7.4
21/07:00pm 15.4 16.5 14.6 95 0.5 SSW 2 4 1 2 - - 7.4
21/06:30pm 15.3 15.0 14.3 94 0.6 S 9 15 5 8 - - 7.2
21/06:00pm 15.5 14.8 14.4 93 0.6 SSW 11 20 6 11 - - 7.0
21/05:30pm 15.9 16.4 14.9 94 0.6 SSE 6 11 3 6 - - 7.0
21/05:00pm 16.2 17.3 15.6 96 0.4 SSW 4 6 2 3 - - 6.0
21/04:30pm 16.2 16.6 15.4 95 0.5 SSW 7 13 4 7 - - 5.8
21/04:00pm 16.7 17.5 15.9 95 0.5 SSW 6 11 3 6 - - 5.4
21/03:30pm 16.5 16.6 15.4 93 0.6 S 9 17 5 9 - - 4.6
21/03:00pm 16.9 16.6 15.4 91 0.9 S 11 19 6 10 - - 3.8
21/02:30pm 17.6 17.2 16.3 92 0.8 SSW 13 22 7 12 - - 3.2
21/02:00pm 17.9 18.9 16.9 94 0.6 S 7 13 4 7 - - 3.0
21/01:30pm 17.6 18.6 16.3 92 0.8 SSE 6 9 3 5 - - 2.8
21/01:00pm 17.6 18.5 16.5 93 0.7 SSE 7 13 4 7 - - 2.6
21/12:30pm 17.8 18.6 16.3 91 0.9 SSE 7 15 4 8 - - 2.2
21/12:00pm 17.8 18.7 16.5 92 0.8 SSE 7 17 4 9 - - 2.2
21/11:30am 18.0 19.3 17.2 95 0.5 SE 6 11 3 6 - - 2.2
21/11:00am 17.8 19.1 17.0 95 0.5 SSE 6 11 3 6 - - 2.0
21/10:30am 17.9 18.9 16.9 94 0.6 SSE 7 17 4 9 - - 1.4
21/10:00am 18.0 18.7 17.0 94 0.6 SSE 9 24 5 13 - - 0.6
21/09:30am 18.5 19.1 17.7 95 0.5 SE 11 19 6 10 - - 0.6
21/09:00am 18.8 20.5 18.0 95 0.5 SE 6 9 3 5 - - 3.8
21/08:30am 18.4 19.9 17.6 95 0.5 SE 6 9 3 5 - - 2.4
21/08:00am 18.0 19.3 17.0 94 0.6 S 6 13 3 7 - - 1.8
21/07:30am 18.1 19.1 16.8 92 0.8 S 7 9 4 5 - - 0.8
21/07:00am 18.7 19.4 16.1 85 1.6 SW 7 9 4 5 - - 0.0
21/06:30am 18.8 19.4 15.9 83 1.7 WSW 7 11 4 6 - - 0.0
21/06:00am 18.9 19.4 15.6 81 2.0 WSW 7 9 4 5 - - 0.0
21/05:30am 18.9 19.3 15.2 79 2.2 W 7 9 4 5 - - 0.0
21/05:00am 19.1 19.6 15.0 77 2.4 NW 6 9 3 5 - - 0.0
21/04:30am 18.4 19.4 15.3 82 1.8 NNW 4 6 2 3 - - 0.0
21/04:00am 18.9 20.3 16.3 85 1.6 NNW 4 6 2 3 - - 0.0
21/03:30am 18.4 20.6 16.4 88 1.2 CALM 0 4 0 2 - - 0.0
21/03:00am 18.5 20.2 16.3 87 1.3 WNW 2 4 1 2 - - 0.0
21/02:30am 18.6 19.9 16.2 86 1.4 NW 4 4 2 2 - - 0.0
21/02:00am 19.4 20.8 16.4 83 1.8 NW 4 6 2 3 - - 0.0
21/01:30am 19.2 21.0 16.4 84 1.7 NW 2 4 1 2 - - 0.0
21/01:00am 19.5 21.0 16.7 84 1.7 WNW 4 6 2 3 - - 0.0
21/12:30am 19.8 21.1 17.0 84 1.7 WNW 6 9 3 5 - - 0.0
21/12:00am 20.1 21.2 16.7 81 2.1 N 6 7 3 4 - - 0.0
 
Date/Time
EST
Temp
°C
App
Temp
°C
Dew
Point
°C
Rel
Hum
%
Delta-T
°C
Wind Press
QNH
hPa
Press
MSL
hPa
Rain since
9am
mm
Dir  Spd
km/h
Gust
km/h
Spd
kts
Gust
kts
20/11:30pm 20.3 21.2 16.5 79 2.3 N 7 11 4 6 - - 0.0

Other Formats:

Comma delimited format used in spreadsheet applications
http://www.bom.gov.au/fwo/IDQ60801/IDQ60801.94561.axf

JavaScript Object Notation format (JSON) in row-major order
http://www.bom.gov.au/fwo/IDQ60801/IDQ60801.94561.json